createdAt,value
2023-04-14T00:01:04.726Z,7.50
2023-04-14T00:03:53.554Z,7.50
2023-04-14T00:06:41.023Z,7.50
2023-04-14T00:09:28.228Z,7.50
2023-04-14T00:12:15.658Z,7.50
2023-04-14T00:15:03.769Z,7.50
2023-04-14T00:17:51.394Z,7.50
2023-04-14T00:20:40.408Z,7.50
2023-04-14T00:23:27.973Z,7.60
2023-04-14T00:26:15.464Z,7.50
2023-04-14T00:29:04.437Z,7.50
2023-04-14T00:31:52.269Z,7.50
2023-04-14T00:34:39.673Z,7.50
2023-04-14T00:37:28.313Z,7.50
2023-04-14T00:40:15.859Z,7.50
2023-04-14T00:43:03.335Z,7.50
2023-04-14T00:45:52.563Z,7.50
2023-04-14T00:48:39.950Z,7.50
2023-04-14T00:51:28.431Z,7.50
2023-04-14T00:54:20.311Z,7.50
2023-04-14T00:57:08.018Z,7.50
2023-04-14T00:59:55.530Z,7.50
2023-04-14T01:02:43.345Z,7.50
2023-04-14T01:05:32.265Z,7.50
2023-04-14T01:08:21.232Z,7.50
2023-04-14T01:11:17.789Z,7.50
2023-04-14T01:14:13.864Z,7.50
2023-04-14T01:17:07.669Z,7.50
2023-04-14T01:20:10.637Z,7.60
2023-04-14T01:23:14.379Z,7.50
2023-04-14T01:26:31.200Z,7.50
2023-04-14T01:29:38.116Z,7.50
2023-04-14T01:32:28.541Z,7.60
2023-04-14T01:35:21.439Z,7.60
2023-04-14T01:38:13.645Z,7.60
2023-04-14T01:41:05.688Z,7.60
2023-04-14T01:43:56.544Z,7.60
2023-04-14T01:46:47.760Z,7.60
2023-04-14T01:49:40.070Z,7.60
2023-04-14T01:52:28.661Z,7.60
2023-04-14T01:55:18.493Z,7.60
2023-04-14T01:58:07.851Z,7.60
2023-04-14T02:00:56.437Z,7.60
2023-04-14T02:03:44.835Z,7.60
2023-04-14T02:06:35.904Z,7.60
2023-04-14T02:09:26.622Z,7.60
2023-04-14T02:12:14.943Z,7.60
2023-04-14T02:15:03.590Z,7.60
2023-04-14T02:17:52.367Z,7.50
2023-04-14T02:20:44.977Z,7.50
2023-04-14T02:23:34.207Z,7.50
2023-04-14T02:26:24.980Z,7.50
2023-04-14T02:29:15.890Z,7.50
2023-04-14T02:32:06.641Z,7.50
2023-04-14T02:34:56.781Z,7.50
2023-04-14T02:37:52.035Z,7.50
2023-04-14T02:40:43.138Z,7.50
2023-04-14T02:43:38.006Z,7.50
2023-04-14T02:46:27.445Z,7.50
2023-04-14T02:49:17.470Z,7.50
2023-04-14T02:52:07.122Z,7.50
2023-04-14T02:54:56.156Z,7.50
2023-04-14T02:57:47.008Z,7.40
2023-04-14T03:00:35.785Z,7.50
2023-04-14T03:03:24.670Z,7.40
2023-04-14T03:06:15.550Z,7.40
2023-04-14T03:09:04.776Z,7.40
2023-04-14T03:11:54.527Z,7.40
2023-04-14T03:14:45.376Z,7.50
2023-04-14T03:17:33.971Z,7.40
2023-04-14T03:20:23.697Z,7.40
2023-04-14T03:23:14.804Z,7.40
2023-04-14T03:26:11.786Z,7.40
2023-04-14T03:29:02.288Z,7.40
2023-04-14T03:31:55.596Z,7.40
2023-04-14T03:34:46.718Z,7.40
2023-04-14T03:37:40.946Z,7.40
2023-04-14T03:40:32.390Z,7.40
2023-04-14T03:43:23.699Z,7.40
2023-04-14T03:46:17.637Z,7.40
2023-04-14T03:49:11.207Z,7.40
2023-04-14T03:52:02.621Z,7.40
2023-04-14T03:54:52.056Z,7.40
2023-04-14T03:57:41.888Z,7.40
2023-04-14T04:00:31.442Z,7.40
2023-04-14T04:03:20.781Z,7.40
2023-04-14T04:06:10.074Z,7.40
2023-04-14T04:08:59.232Z,7.40
2023-04-14T04:11:50.866Z,7.40
2023-04-14T04:14:40.573Z,7.40
2023-04-14T04:17:32.671Z,7.40
2023-04-14T04:20:21.981Z,7.40
2023-04-14T04:23:12.553Z,7.40
2023-04-14T04:26:00.600Z,7.40
2023-04-14T04:28:57.096Z,7.40
2023-04-14T04:31:46.843Z,7.40
2023-04-14T04:34:35.887Z,7.40
2023-04-14T04:37:28.730Z,7.40
2023-04-14T04:40:18.783Z,7.40
2023-04-14T04:43:08.445Z,7.40
2023-04-14T04:46:18.043Z,7.40
2023-04-14T04:49:05.631Z,7.40
2023-04-14T04:51:53.173Z,7.40
2023-04-14T04:54:40.937Z,7.40
2023-04-14T04:57:29.650Z,7.40
2023-04-14T05:00:17.874Z,7.40
2023-04-14T05:03:05.559Z,7.40
2023-04-14T05:05:53.248Z,7.40
2023-04-14T05:08:40.878Z,7.50
2023-04-14T05:11:28.268Z,7.50
2023-04-14T05:14:17.474Z,7.50
2023-04-14T05:17:05.106Z,7.50
2023-04-14T05:19:52.936Z,7.50
2023-04-14T05:22:40.476Z,7.50
2023-04-14T05:25:27.752Z,7.50
2023-04-14T05:28:16.374Z,7.50
2023-04-14T05:31:05.212Z,7.50
2023-04-14T05:33:52.763Z,7.50
2023-04-14T05:36:40.082Z,7.60
2023-04-14T05:39:27.521Z,7.60
2023-04-14T05:42:15.590Z,7.60
2023-04-14T05:45:04.254Z,7.60
2023-04-14T05:47:53.119Z,7.60
2023-04-14T05:50:41.109Z,7.60
2023-04-14T05:53:28.890Z,7.60
2023-04-14T05:56:16.372Z,7.70
2023-04-14T05:59:06.433Z,7.70
2023-04-14T06:01:54.143Z,7.70
2023-04-14T06:04:43.879Z,7.70
2023-04-14T06:07:31.654Z,7.70
2023-04-14T06:10:19.537Z,7.80
2023-04-14T06:13:08.640Z,7.80
2023-04-14T06:15:58.223Z,7.90
2023-04-14T06:18:45.572Z,7.90
2023-04-14T06:21:34.472Z,8.00
2023-04-14T06:24:22.136Z,8.00
2023-04-14T06:27:09.573Z,8.00
2023-04-14T06:30:00.044Z,8.00
2023-04-14T06:32:48.718Z,8.00
2023-04-14T06:35:36.898Z,8.00
2023-04-14T06:38:27.060Z,8.10
2023-04-14T06:41:14.533Z,8.20
2023-04-14T06:44:01.981Z,8.30
2023-04-14T06:46:49.678Z,8.40
2023-04-14T06:49:37.725Z,8.50
2023-04-14T06:52:25.111Z,8.60
2023-04-14T06:55:14.775Z,8.80
2023-04-14T06:58:02.413Z,8.90
2023-04-14T07:00:49.706Z,9.00
2023-04-14T07:03:37.673Z,9.10
2023-04-14T07:06:27.644Z,9.20
2023-04-14T07:09:16.009Z,9.30
2023-04-14T07:12:06.163Z,9.30
2023-04-14T07:14:53.793Z,9.40
2023-04-14T07:17:41.260Z,9.40
2023-04-14T07:20:29.618Z,9.30
2023-04-14T07:23:17.184Z,9.30
2023-04-14T07:26:04.544Z,9.30
2023-04-14T07:28:53.524Z,9.30
2023-04-14T07:31:41.291Z,9.30
2023-04-14T07:34:28.803Z,9.40
2023-04-14T07:37:17.235Z,9.50
2023-04-14T07:40:04.766Z,9.50
2023-04-14T07:42:52.168Z,9.40
2023-04-14T07:45:41.293Z,9.40
2023-04-14T07:48:28.994Z,9.40
2023-04-14T07:51:16.704Z,9.40
2023-04-14T07:54:05.978Z,9.40
2023-04-14T07:56:53.716Z,9.50
2023-04-14T07:59:42.882Z,9.60
2023-04-14T08:02:32.724Z,9.60
2023-04-14T08:05:20.161Z,9.70
2023-04-14T08:08:08.486Z,9.70
2023-04-14T08:10:55.971Z,9.80
2023-04-14T08:13:44.349Z,9.80
2023-04-14T08:16:32.823Z,9.90
2023-04-14T08:19:21.780Z,9.90
2023-04-14T08:22:09.986Z,9.90
2023-04-14T08:24:57.683Z,9.90
2023-04-14T08:27:44.928Z,10.00
2023-04-14T08:30:32.347Z,10.10
2023-04-14T08:33:19.871Z,10.10
2023-04-14T08:36:09.511Z,10.20
2023-04-14T08:38:56.818Z,10.30
2023-04-14T08:41:44.749Z,10.30
2023-04-14T08:44:32.381Z,10.50
2023-04-14T08:47:20.811Z,10.50
2023-04-14T08:50:14.121Z,10.50
2023-04-14T08:53:05.357Z,10.40
2023-04-14T08:55:54.857Z,10.40
2023-04-14T08:58:43.815Z,10.50
2023-04-14T09:01:33.636Z,10.60
2023-04-14T09:04:23.253Z,10.70
2023-04-14T09:07:11.048Z,10.80
2023-04-14T09:10:01.666Z,10.90
2023-04-14T09:12:49.912Z,10.90
2023-04-14T09:15:38.326Z,10.90
2023-04-14T09:18:28.346Z,11.00
2023-04-14T09:21:50.141Z,11.00
2023-04-14T09:24:32.483Z,11.00
2023-04-14T09:27:21.621Z,11.20
2023-04-14T09:30:11.022Z,11.30
2023-04-14T09:32:58.906Z,11.40
2023-04-14T09:35:48.659Z,11.50
2023-04-14T09:38:37.671Z,11.60
2023-04-14T09:41:26.173Z,11.70
2023-04-14T09:44:15.146Z,11.80
2023-04-14T09:47:05.168Z,11.90
2023-04-14T09:49:58.148Z,12.00
2023-04-14T09:52:46.917Z,12.20
2023-04-14T09:55:34.687Z,12.40
2023-04-14T09:58:25.342Z,12.50
2023-04-14T10:01:18.140Z,12.80
2023-04-14T10:04:06.204Z,12.90
2023-04-14T10:06:57.690Z,13.10
2023-04-14T10:09:49.706Z,12.90
2023-04-14T10:12:37.263Z,13.00
2023-04-14T10:15:24.927Z,13.20
2023-04-14T10:18:13.855Z,13.30
2023-04-14T10:21:02.586Z,13.50
2023-04-14T10:23:51.162Z,13.80
2023-04-14T10:26:38.519Z,13.80
2023-04-14T10:29:26.659Z,13.90
2023-04-14T10:32:17.659Z,13.80
2023-04-14T10:35:10.175Z,13.90
2023-04-14T10:37:58.115Z,14.20
2023-04-14T10:40:49.965Z,14.50
2023-04-14T10:43:38.189Z,14.60
2023-04-14T10:46:26.085Z,14.80
2023-04-14T10:49:14.327Z,14.50
2023-04-14T10:52:04.478Z,14.20
2023-04-14T10:54:54.508Z,14.20
2023-04-14T10:57:43.803Z,14.10
2023-04-14T11:00:32.483Z,14.20
2023-04-14T11:03:20.362Z,14.10
2023-04-14T11:06:08.445Z,14.00
2023-04-14T11:08:57.453Z,14.00
2023-04-14T11:11:44.856Z,14.00
2023-04-14T11:14:33.957Z,14.10
2023-04-14T11:17:23.268Z,14.10
2023-04-14T11:20:16.198Z,14.20
2023-04-14T11:23:04.204Z,14.30
2023-04-14T11:25:53.759Z,14.20
2023-04-14T11:28:43.598Z,14.10
2023-04-14T11:31:31.467Z,14.20
2023-04-14T11:34:26.853Z,14.30
2023-04-14T11:37:14.276Z,14.50
2023-04-14T11:40:01.810Z,14.70
2023-04-14T11:42:53.306Z,14.90
2023-04-14T11:45:44.132Z,14.90
2023-04-14T11:48:32.036Z,15.00
2023-04-14T11:51:20.631Z,15.30
2023-04-14T11:54:08.326Z,15.60
2023-04-14T11:56:55.932Z,16.00
2023-04-14T11:59:46.188Z,16.40
2023-04-14T12:02:33.866Z,16.70
2023-04-14T12:05:23.105Z,17.00
2023-04-14T12:08:12.695Z,17.00
2023-04-14T12:11:13.515Z,17.10
2023-04-14T12:14:02.549Z,17.10
2023-04-14T12:16:51.542Z,16.90
2023-04-14T12:19:39.493Z,16.80
2023-04-14T12:22:27.935Z,16.80
2023-04-14T12:25:15.486Z,16.60
2023-04-14T12:28:06.254Z,16.50
2023-04-14T12:30:55.024Z,16.40
2023-04-14T12:33:45.889Z,16.30
2023-04-14T12:36:49.014Z,16.30
2023-04-14T12:39:51.890Z,16.40
2023-04-14T12:42:48.154Z,16.30
2023-04-14T12:45:42.980Z,16.10
2023-04-14T12:48:43.789Z,15.80
2023-04-14T12:51:41.337Z,15.70
2023-04-14T12:54:43.513Z,15.70
2023-04-14T12:57:31.257Z,15.70
2023-04-14T13:00:19.443Z,15.70
2023-04-14T13:03:07.914Z,15.50
2023-04-14T13:05:56.015Z,15.50
2023-04-14T13:08:49.609Z,15.50
2023-04-14T13:11:37.273Z,15.30
2023-04-14T13:14:24.992Z,15.30
2023-04-14T13:17:12.802Z,15.20
2023-04-14T13:20:01.006Z,15.20
2023-04-14T13:22:48.627Z,15.20
2023-04-14T13:25:39.408Z,15.10
2023-04-14T13:28:27.662Z,15.10
2023-04-14T13:31:18.252Z,15.20
2023-04-14T13:34:06.106Z,15.20
2023-04-14T13:36:53.697Z,15.00
2023-04-14T13:39:41.134Z,14.90
2023-04-14T13:42:30.230Z,14.80
2023-04-14T13:45:17.866Z,14.60
2023-04-14T13:48:05.914Z,14.60
2023-04-14T13:50:54.477Z,14.70
2023-04-14T13:53:42.296Z,14.70
2023-04-14T13:56:29.946Z,14.70
2023-04-14T13:59:20.240Z,14.60
2023-04-14T14:02:08.248Z,14.60
2023-04-14T14:04:55.796Z,14.50
2023-04-14T14:07:44.727Z,14.30
2023-04-14T14:10:32.233Z,14.20
2023-04-14T14:13:20.724Z,14.20
2023-04-14T14:16:10.558Z,14.10
2023-04-14T14:18:58.037Z,14.10
2023-04-14T14:21:45.444Z,14.10
2023-04-14T14:24:33.464Z,14.10
2023-04-14T14:27:21.258Z,14.10
2023-04-14T14:30:09.986Z,14.10
2023-04-14T14:32:59.144Z,14.20
2023-04-14T14:35:46.921Z,14.30
2023-04-14T14:38:34.683Z,14.30
2023-04-14T14:41:22.500Z,14.30
2023-04-14T14:44:10.098Z,14.30
2023-04-14T14:46:58.693Z,14.20
2023-04-14T14:49:59.114Z,14.20
2023-04-14T14:52:47.987Z,14.20
2023-04-14T14:55:35.909Z,14.30
2023-04-14T14:58:24.473Z,14.30
2023-04-14T15:01:11.929Z,14.40
2023-04-14T15:03:59.555Z,14.50
2023-04-14T15:06:48.500Z,14.50
2023-04-14T15:09:36.595Z,14.40
2023-04-14T15:12:24.012Z,14.20
2023-04-14T15:15:13.138Z,14.20
2023-04-14T15:18:01.001Z,14.10
2023-04-14T15:20:48.460Z,14.10
2023-04-14T15:23:39.728Z,14.10
2023-04-14T15:26:27.334Z,14.10
2023-04-14T15:29:14.707Z,14.10
2023-04-14T15:32:02.218Z,14.10
2023-04-14T15:34:49.741Z,14.00
2023-04-14T15:37:37.292Z,14.00
2023-04-14T15:40:26.539Z,13.90
2023-04-14T15:43:16.093Z,13.80
2023-04-14T15:46:03.670Z,13.80
2023-04-14T15:48:51.245Z,13.80
2023-04-14T15:51:38.831Z,13.70
2023-04-14T15:54:26.736Z,13.70
2023-04-14T15:57:15.853Z,13.60
2023-04-14T16:00:04.953Z,13.60
2023-04-14T16:03:02.153Z,13.60
2023-04-14T16:05:49.758Z,13.60
2023-04-14T16:08:37.432Z,13.50
2023-04-14T16:11:25.270Z,13.50
2023-04-14T16:14:14.183Z,13.50
2023-04-14T16:17:01.612Z,13.40
2023-04-14T16:19:49.027Z,13.40
2023-04-14T16:22:37.119Z,13.40
2023-04-14T16:25:24.920Z,13.40
2023-04-14T16:28:12.526Z,13.30
2023-04-14T16:31:02.051Z,13.20
2023-04-14T16:33:49.751Z,13.10
2023-04-14T16:36:38.115Z,13.10
2023-04-14T16:39:27.918Z,13.00
2023-04-14T16:42:18.718Z,13.00
2023-04-14T16:45:07.214Z,13.00
2023-04-14T16:47:56.292Z,12.80
2023-04-14T16:50:47.069Z,12.70
2023-04-14T16:53:34.771Z,12.60
2023-04-14T16:56:22.978Z,12.50
2023-04-14T16:59:10.419Z,12.50
2023-04-14T17:01:58.367Z,12.40
2023-04-14T17:04:47.534Z,12.30
2023-04-14T17:07:35.047Z,12.20
2023-04-14T17:10:22.860Z,12.10
2023-04-14T17:13:10.650Z,12.10
2023-04-14T17:16:06.127Z,12.00
2023-04-14T17:18:58.179Z,11.90
2023-04-14T17:21:47.172Z,11.90
2023-04-14T17:24:34.908Z,11.90
2023-04-14T17:27:22.480Z,11.90
2023-04-14T17:30:12.056Z,11.80
2023-04-14T17:32:59.773Z,11.70
2023-04-14T17:35:47.989Z,11.60
2023-04-14T17:38:38.729Z,11.60
2023-04-14T17:41:27.133Z,11.50
2023-04-14T17:44:14.915Z,11.50
2023-04-14T17:47:03.362Z,11.40
2023-04-14T17:49:51.461Z,11.40
2023-04-14T17:52:40.725Z,11.40
2023-04-14T17:55:29.394Z,11.40
2023-04-14T17:58:16.985Z,11.30
2023-04-14T18:01:05.252Z,11.20
2023-04-14T18:03:52.884Z,11.20
2023-04-14T18:06:40.835Z,11.10
2023-04-14T18:09:28.683Z,11.10
2023-04-14T18:12:17.518Z,11.00
2023-04-14T18:15:05.235Z,11.00
2023-04-14T18:17:52.778Z,11.00
2023-04-14T18:20:40.409Z,11.00
2023-04-14T18:23:28.671Z,10.90
2023-04-14T18:29:08.845Z,10.90
2023-04-14T18:31:58.311Z,10.90
2023-04-14T18:34:46.004Z,10.80
2023-04-14T18:37:33.413Z,10.80
2023-04-14T18:40:21.202Z,10.80
2023-04-14T18:43:08.621Z,10.80
2023-04-14T18:45:57.302Z,10.80
2023-04-14T18:48:45.042Z,10.80
2023-04-14T18:51:32.788Z,10.80
2023-04-14T18:54:21.427Z,10.80
2023-04-14T18:57:09.378Z,10.80
2023-04-14T18:59:56.973Z,10.80
2023-04-14T19:02:45.799Z,10.80
2023-04-14T19:05:35.241Z,10.80
2023-04-14T19:08:22.762Z,10.80
2023-04-14T19:11:11.827Z,10.70
2023-04-14T19:13:59.673Z,10.70
2023-04-14T19:16:47.148Z,10.70
2023-04-14T19:19:36.483Z,10.70
2023-04-14T19:22:23.793Z,10.60
2023-04-14T19:25:11.929Z,10.60
2023-04-14T19:28:02.213Z,10.60
2023-04-14T19:30:49.710Z,10.60
2023-04-14T19:33:37.582Z,10.60
2023-04-14T19:36:26.587Z,10.60
2023-04-14T19:39:14.346Z,10.50
2023-04-14T19:42:02.031Z,10.50
2023-04-14T19:44:49.497Z,10.50
2023-04-14T19:47:37.664Z,10.50
2023-04-14T19:50:25.514Z,10.50
2023-04-14T19:53:15.566Z,10.50
2023-04-14T19:56:05.551Z,10.40
2023-04-14T19:58:54.063Z,10.40
2023-04-14T20:01:42.420Z,10.40
2023-04-14T20:04:30.228Z,10.40
2023-04-14T20:07:17.709Z,10.30
2023-04-14T20:10:08.276Z,10.30
2023-04-14T20:12:55.903Z,10.30
2023-04-14T20:15:43.599Z,10.30
2023-04-14T20:18:31.466Z,10.30
2023-04-14T20:21:19.533Z,10.30
2023-04-14T20:24:07.434Z,10.20
2023-04-14T20:26:56.544Z,10.30
2023-04-14T20:29:44.526Z,10.30
2023-04-14T20:32:32.396Z,10.20
2023-04-14T20:35:20.206Z,10.20
2023-04-14T20:38:08.190Z,10.20
2023-04-14T20:40:55.889Z,10.20
2023-04-14T20:43:44.654Z,10.20
2023-04-14T20:46:32.773Z,10.20
2023-04-14T20:49:20.208Z,10.20
2023-04-14T20:52:07.812Z,10.20
2023-04-14T20:54:55.521Z,10.20
2023-04-14T20:57:43.703Z,10.20
2023-04-14T21:00:34.267Z,10.10
2023-04-14T21:03:23.911Z,10.10
2023-04-14T21:06:11.874Z,10.10
2023-04-14T21:08:59.552Z,10.10
2023-04-14T21:11:47.036Z,10.10
2023-04-14T21:15:40.163Z,10.10
2023-04-14T21:17:43.141Z,10.10
2023-04-14T21:20:30.742Z,10.00
2023-04-14T21:23:20.374Z,10.10
2023-04-14T21:26:08.136Z,10.10
2023-04-14T21:28:56.092Z,10.00
2023-04-14T21:31:43.770Z,10.00
2023-04-14T21:34:33.571Z,10.00
2023-04-14T21:37:21.428Z,10.00
2023-04-14T21:40:10.153Z,10.00
2023-04-14T21:42:57.632Z,10.00
2023-04-14T21:45:46.129Z,10.00
2023-04-14T21:48:33.937Z,10.00
2023-04-14T21:51:22.586Z,10.00
2023-04-14T21:54:10.398Z,10.00
2023-04-14T21:56:58.305Z,10.00
2023-04-14T21:59:46.290Z,10.00
2023-04-14T22:02:34.200Z,10.00
2023-04-14T22:05:21.952Z,10.00
2023-04-14T22:08:12.181Z,10.00
2023-04-14T22:11:00.178Z,10.00
2023-04-14T22:13:48.053Z,10.00
2023-04-14T22:16:36.306Z,10.00
2023-04-14T22:19:23.953Z,10.00
2023-04-14T22:22:11.411Z,10.00
2023-04-14T22:25:00.415Z,10.00
2023-04-14T22:27:48.104Z,10.00
2023-04-14T22:30:35.655Z,10.00
2023-04-14T22:33:23.285Z,10.00
2023-04-14T22:36:10.608Z,9.90
2023-04-14T22:38:58.311Z,9.90
2023-04-14T22:41:49.738Z,9.90
2023-04-14T22:44:37.264Z,9.90
2023-04-14T22:47:24.899Z,9.90
2023-04-14T22:50:12.749Z,9.90
2023-04-14T22:53:00.925Z,9.80
2023-04-14T22:55:48.702Z,9.90
2023-04-14T22:58:39.861Z,9.90
2023-04-14T23:01:29.015Z,9.80
2023-04-14T23:04:16.825Z,9.80
2023-04-14T23:07:04.579Z,9.90
2023-04-14T23:09:52.261Z,9.90
2023-04-14T23:12:40.192Z,10.00
2023-04-14T23:15:28.995Z,10.00
2023-04-14T23:18:16.517Z,10.10
2023-04-14T23:21:03.938Z,10.20
2023-04-14T23:23:51.465Z,10.30
2023-04-14T23:26:38.909Z,10.30
2023-04-14T23:29:26.742Z,10.40
2023-04-14T23:32:15.829Z,10.40
2023-04-14T23:35:03.392Z,10.40
2023-04-14T23:37:50.773Z,10.40
2023-04-14T23:40:38.349Z,10.40
2023-04-14T23:43:25.906Z,10.40
2023-04-14T23:46:14.029Z,10.40
2023-04-14T23:49:23.882Z,10.40
2023-04-14T23:52:11.020Z,10.40
2023-04-14T23:54:58.696Z,10.40
2023-04-14T23:57:46.960Z,10.40
